createdAt,value
2018-06-11T00:00:15.492Z,23.70
2018-06-11T00:05:17.658Z,24.57
2018-06-11T00:10:21.106Z,22.00
2018-06-11T00:15:23.383Z,21.10
2018-06-11T00:20:25.554Z,21.20
2018-06-11T00:25:27.850Z,22.83
2018-06-11T00:30:30.016Z,19.60
2018-06-11T00:35:32.156Z,17.80
2018-06-11T00:40:34.315Z,21.83
2018-06-11T00:45:36.469Z,30.03
2018-06-11T00:50:38.634Z,19.73
2018-06-11T00:55:52.379Z,20.70
2018-06-11T01:00:54.524Z,20.47
2018-06-11T01:05:56.665Z,17.80
2018-06-11T01:10:58.809Z,20.00
2018-06-11T01:16:01.132Z,21.20
2018-06-11T01:21:03.310Z,19.50
2018-06-11T01:26:05.459Z,25.50
2018-06-11T01:31:07.604Z,20.43
2018-06-11T01:36:09.806Z,17.20
2018-06-11T01:41:11.946Z,19.63
2018-06-11T01:46:14.086Z,22.30
2018-06-11T01:51:16.238Z,18.70
2018-06-11T01:56:18.397Z,19.80
2018-06-11T02:01:20.531Z,22.10
2018-06-11T02:06:22.694Z,22.80
2018-06-11T02:11:24.865Z,21.53
2018-06-11T02:16:27.084Z,19.70
2018-06-11T02:21:29.695Z,27.00
2018-06-11T02:26:32.095Z,20.80
2018-06-11T02:31:34.254Z,20.13
2018-06-11T02:36:36.451Z,19.73
2018-06-11T02:41:38.620Z,20.33
2018-06-11T02:46:40.779Z,20.77
2018-06-11T02:51:42.917Z,19.67
2018-06-11T02:56:45.073Z,23.53
2018-06-11T03:01:47.209Z,19.50
2018-06-11T03:06:49.378Z,19.60
2018-06-11T03:11:51.531Z,19.90
2018-06-11T03:16:53.713Z,24.90
2018-06-11T03:21:55.882Z,25.53
2018-06-11T03:26:58.418Z,20.23
2018-06-11T03:32:00.978Z,22.23
2018-06-11T03:37:03.122Z,23.00
2018-06-11T03:42:05.734Z,21.23
2018-06-11T03:47:07.882Z,22.07
2018-06-11T03:52:10.042Z,21.70
2018-06-11T03:57:12.210Z,18.80
2018-06-11T04:02:14.342Z,24.73
2018-06-11T04:07:16.493Z,20.37
2018-06-11T04:12:18.634Z,22.80
2018-06-11T04:17:20.782Z,23.33
2018-06-11T04:22:22.924Z,21.10
2018-06-11T04:27:25.064Z,23.10
2018-06-11T04:32:27.219Z,21.30
2018-06-11T04:37:29.376Z,28.43
2018-06-11T04:42:31.533Z,20.70
2018-06-11T04:47:33.691Z,19.33
2018-06-11T04:52:35.864Z,21.23
2018-06-11T04:57:38.810Z,18.17
2018-06-11T05:02:41.003Z,18.83
2018-06-11T05:07:43.191Z,20.20
2018-06-11T05:12:45.373Z,19.13
2018-06-11T05:17:47.548Z,16.50
2018-06-11T05:22:49.717Z,17.10
2018-06-11T05:27:51.887Z,16.30
2018-06-11T05:32:54.065Z,17.10
2018-06-11T05:37:56.229Z,20.07
2018-06-11T05:42:58.386Z,20.03
2018-06-11T05:48:01.069Z,17.73
2018-06-11T05:53:03.193Z,16.73
2018-06-11T05:58:05.361Z,15.30
2018-06-11T06:03:07.541Z,16.30
2018-06-11T06:08:09.696Z,17.17
2018-06-11T06:13:11.866Z,18.40
2018-06-11T06:18:14.054Z,17.50
2018-06-11T06:23:16.237Z,16.23
2018-06-11T06:28:18.386Z,19.63
2018-06-11T06:33:20.595Z,18.30
2018-06-11T06:38:22.746Z,17.03
2018-06-11T06:43:24.913Z,16.83
2018-06-11T06:48:27.065Z,15.70
2018-06-11T06:53:29.264Z,16.67
2018-06-11T06:58:31.459Z,16.20
2018-06-11T07:03:33.658Z,14.20
2018-06-11T07:08:35.810Z,14.10
2018-06-11T07:13:37.973Z,14.80
2018-06-11T07:18:40.109Z,17.87
2018-06-11T07:23:42.269Z,13.70
2018-06-11T07:28:44.476Z,14.20
2018-06-11T07:33:46.626Z,16.87
2018-06-11T07:38:48.764Z,17.87
2018-06-11T07:43:50.917Z,15.07
2018-06-11T07:48:53.037Z,17.60
2018-06-11T07:53:55.182Z,15.17
2018-06-11T07:58:57.314Z,21.03
2018-06-11T08:03:59.586Z,20.10
2018-06-11T08:09:01.797Z,16.90
2018-06-11T08:14:03.934Z,17.67
2018-06-11T08:19:06.075Z,21.13
2018-06-11T08:24:08.208Z,15.87
2018-06-11T08:29:10.341Z,18.30
2018-06-11T08:34:12.480Z,18.93
2018-06-11T08:39:14.659Z,16.70
2018-06-11T08:44:16.843Z,23.07
2018-06-11T08:49:18.977Z,15.00
2018-06-11T08:54:21.174Z,15.60
2018-06-11T08:59:23.349Z,21.33
2018-06-11T09:04:25.492Z,19.10
2018-06-11T09:09:27.641Z,15.30
2018-06-11T09:14:29.803Z,17.07
2018-06-11T09:19:31.957Z,18.50
2018-06-11T09:24:34.106Z,16.33
2018-06-11T09:29:36.242Z,18.30
2018-06-11T09:34:38.386Z,15.07
2018-06-11T09:39:40.532Z,15.67
2018-06-11T09:44:42.697Z,17.00
2018-06-11T09:49:44.875Z,14.40
2018-06-11T09:54:47.021Z,16.47
2018-06-11T09:59:49.181Z,16.50
2018-06-11T10:04:51.330Z,20.23
2018-06-11T10:09:53.491Z,13.73
2018-06-11T10:14:55.625Z,14.07
2018-06-11T10:19:57.763Z,14.37
2018-06-11T10:24:59.915Z,12.90
2018-06-11T10:30:02.104Z,13.90
2018-06-11T10:35:04.318Z,12.97
2018-06-11T10:40:06.510Z,12.87
2018-06-11T10:45:08.693Z,13.50
2018-06-11T10:50:10.866Z,13.03
2018-06-11T10:55:13.030Z,13.40
2018-06-11T11:00:15.220Z,13.13
2018-06-11T11:05:17.406Z,12.70
2018-06-11T11:10:19.588Z,15.33
2018-06-11T11:15:21.763Z,12.40
2018-06-11T11:20:23.923Z,15.50
2018-06-11T11:25:26.107Z,13.50
2018-06-11T11:30:28.270Z,15.60
2018-06-11T11:35:30.410Z,14.07
2018-06-11T11:40:32.574Z,12.43
2018-06-11T11:45:34.758Z,14.13
2018-06-11T11:50:36.899Z,17.00
2018-06-11T11:55:39.045Z,15.17
2018-06-11T12:00:41.229Z,15.30
2018-06-11T12:05:43.357Z,15.80
2018-06-11T12:10:45.925Z,18.33
2018-06-11T12:15:48.069Z,16.40
2018-06-11T12:20:50.249Z,18.80
2018-06-11T12:25:52.581Z,16.30
2018-06-11T12:30:54.713Z,17.77
2018-06-11T12:35:56.890Z,16.87
2018-06-11T12:40:59.039Z,20.17
2018-06-11T12:46:01.197Z,17.93
2018-06-11T12:51:03.365Z,21.00
2018-06-11T12:56:05.529Z,23.97
2018-06-11T13:01:07.661Z,25.20
2018-06-11T13:06:09.825Z,17.90
2018-06-11T13:11:11.982Z,17.77
2018-06-11T13:16:14.134Z,16.03
2018-06-11T13:21:16.262Z,18.53
2018-06-11T13:26:18.409Z,18.13
2018-06-11T13:31:20.546Z,21.50
2018-06-11T13:36:22.676Z,18.10
2018-06-11T13:41:24.847Z,19.30
2018-06-11T13:46:27.050Z,17.27
2018-06-11T13:51:29.201Z,18.57
2018-06-11T13:56:31.350Z,19.43
2018-06-11T14:01:33.528Z,20.17
2018-06-11T14:06:35.678Z,19.13
2018-06-11T14:11:37.841Z,24.10
2018-06-11T14:16:39.958Z,21.10
2018-06-11T14:21:42.106Z,18.37
2018-06-11T14:26:44.289Z,18.10
2018-06-11T14:31:46.445Z,16.87
2018-06-11T14:36:48.598Z,14.63
2018-06-11T14:41:50.762Z,14.87
2018-06-11T14:46:52.945Z,14.27
2018-06-11T14:51:55.122Z,13.40
2018-06-11T14:56:57.274Z,14.13
2018-06-11T15:01:59.425Z,15.77
2018-06-11T15:07:01.618Z,17.67
2018-06-11T15:12:03.794Z,19.63
2018-06-11T15:17:05.971Z,22.53
2018-06-11T15:22:08.151Z,25.20
2018-06-11T15:27:10.305Z,30.57
2018-06-11T15:32:12.502Z,22.37
2018-06-11T15:37:14.663Z,18.67
2018-06-11T15:42:16.869Z,20.13
2018-06-11T15:47:19.030Z,25.43
2018-06-11T15:52:21.214Z,23.20
2018-06-11T15:57:23.400Z,21.17
2018-06-11T16:02:25.577Z,22.50
2018-06-11T16:07:27.734Z,25.27
2018-06-11T16:12:29.909Z,25.30
2018-06-11T16:17:32.077Z,30.43
2018-06-11T16:22:34.259Z,35.97
2018-06-11T16:27:36.478Z,36.93
2018-06-11T16:32:38.667Z,31.97
2018-06-11T16:37:40.853Z,28.53
2018-06-11T16:42:43.042Z,34.30
2018-06-11T16:47:45.227Z,33.03
2018-06-11T16:52:47.406Z,39.87
2018-06-11T16:57:49.559Z,39.50
2018-06-11T17:02:52.769Z,38.90
2018-06-11T17:07:54.942Z,44.93
2018-06-11T17:12:57.122Z,43.23
2018-06-11T17:17:59.278Z,54.00
2018-06-11T17:23:01.497Z,54.83
2018-06-11T17:28:04.981Z,38.77
2018-06-11T17:33:07.145Z,36.63
2018-06-11T17:38:09.295Z,38.50
2018-06-11T17:43:12.910Z,39.47
2018-06-11T17:48:18.553Z,38.33
2018-06-11T17:53:20.685Z,34.10
2018-06-11T17:58:22.890Z,32.23
2018-06-11T18:03:25.178Z,40.10
2018-06-11T18:08:27.337Z,49.03
2018-06-11T18:13:29.487Z,49.27
2018-06-11T18:18:31.634Z,47.67
2018-06-11T18:23:33.765Z,46.13
2018-06-11T18:28:35.952Z,40.80
2018-06-11T18:33:38.113Z,43.00
2018-06-11T18:38:40.278Z,43.20
2018-06-11T18:43:42.457Z,52.37
2018-06-11T18:48:44.646Z,56.10
2018-06-11T18:53:46.829Z,54.57
2018-06-11T18:58:48.986Z,54.23
2018-06-11T19:03:51.358Z,58.30
2018-06-11T19:08:53.497Z,53.37
2018-06-11T19:13:55.693Z,58.17
2018-06-11T19:18:57.927Z,62.47
2018-06-11T19:24:00.345Z,64.83
2018-06-11T19:29:02.642Z,60.00
2018-06-11T19:34:05.102Z,68.33
2018-06-11T19:39:07.297Z,69.80
2018-06-11T19:44:09.635Z,61.63
2018-06-11T19:49:12.108Z,65.23
2018-06-11T19:54:14.387Z,68.13
2018-06-11T19:59:16.694Z,57.30
2018-06-11T20:04:18.918Z,62.13
2018-06-11T20:09:21.076Z,63.47
2018-06-11T20:14:23.365Z,64.43
2018-06-11T20:19:26.651Z,66.70
2018-06-11T20:24:29.230Z,61.93
2018-06-11T20:29:31.566Z,63.80
2018-06-11T20:34:33.725Z,57.73
2018-06-11T20:39:35.909Z,74.50
2018-06-11T20:44:38.082Z,51.77
2018-06-11T20:49:40.202Z,48.50
2018-06-11T20:54:42.332Z,45.13
2018-06-11T20:59:44.489Z,43.77
2018-06-11T21:04:46.648Z,40.90
2018-06-11T21:09:48.835Z,37.63
2018-06-11T21:14:50.992Z,38.53
2018-06-11T21:19:53.129Z,39.20
2018-06-11T21:24:55.262Z,47.27
2018-06-11T21:29:57.420Z,45.93
2018-06-11T21:34:59.582Z,47.20
2018-06-11T21:40:01.767Z,41.37
2018-06-11T21:45:04.149Z,38.13
2018-06-11T21:50:06.352Z,41.03
2018-06-11T21:55:08.542Z,38.47
2018-06-11T22:00:10.774Z,35.67
2018-06-11T22:05:12.978Z,33.20
2018-06-11T22:10:15.149Z,38.67
2018-06-11T22:15:17.314Z,36.97
2018-06-11T22:20:19.493Z,38.37
2018-06-11T22:25:21.690Z,35.13
2018-06-11T22:30:28.470Z,35.90
2018-06-11T22:35:31.921Z,34.33
2018-06-11T22:40:34.067Z,31.57
2018-06-11T22:45:36.234Z,28.63
2018-06-11T22:50:38.383Z,30.40
2018-06-11T22:55:40.531Z,32.17
2018-06-11T23:00:42.681Z,30.33
2018-06-11T23:05:44.846Z,29.13
2018-06-11T23:10:46.979Z,24.60
2018-06-11T23:15:49.174Z,28.03
2018-06-11T23:20:51.330Z,25.67
2018-06-11T23:25:53.477Z,32.20
2018-06-11T23:30:55.605Z,23.70
2018-06-11T23:35:57.766Z,24.43
2018-06-11T23:40:59.950Z,21.43
2018-06-11T23:46:02.139Z,23.93
2018-06-11T23:51:04.502Z,20.40
2018-06-11T23:56:06.671Z,20.63
